createdAt,value
2022-08-07T00:01:44.069Z,18.29
2022-08-07T00:04:05.843Z,18.27
2022-08-07T00:06:33.676Z,18.25
2022-08-07T00:09:16.378Z,18.23
2022-08-07T00:11:55.338Z,18.21
2022-08-07T00:14:25.385Z,18.17
2022-08-07T00:16:52.540Z,18.16
2022-08-07T00:19:21.610Z,18.13
2022-08-07T00:21:55.315Z,18.10
2022-08-07T00:24:24.500Z,18.08
2022-08-07T00:27:06.293Z,18.05
2022-08-07T00:29:34.186Z,18.03
2022-08-07T00:32:05.738Z,17.99
2022-08-07T00:34:32.895Z,17.99
2022-08-07T00:37:02.284Z,17.98
2022-08-07T00:39:32.157Z,17.97
2022-08-07T00:42:01.795Z,17.94
2022-08-07T00:44:31.314Z,17.92
2022-08-07T00:47:00.534Z,17.91
2022-08-07T00:50:21.217Z,17.88
2022-08-07T00:52:17.567Z,17.85
2022-08-07T00:54:46.882Z,17.81
2022-08-07T00:57:22.744Z,17.80
2022-08-07T00:59:49.354Z,17.79
2022-08-07T01:02:28.854Z,17.77
2022-08-07T01:04:58.604Z,17.73
2022-08-07T01:07:27.607Z,17.70
2022-08-07T01:10:05.317Z,17.65
2022-08-07T01:12:37.857Z,17.64
2022-08-07T01:15:06.221Z,17.62
2022-08-07T01:17:33.818Z,17.56
2022-08-07T01:20:08.079Z,17.54
2022-08-07T01:22:37.061Z,17.50
2022-08-07T01:25:54.184Z,17.42
2022-08-07T01:28:01.320Z,17.35
2022-08-07T01:30:31.246Z,17.32
2022-08-07T01:32:58.829Z,17.30
2022-08-07T01:35:25.804Z,17.26
2022-08-07T01:38:12.659Z,17.23
2022-08-07T01:40:54.785Z,17.21
2022-08-07T01:43:23.242Z,17.19
2022-08-07T01:45:54.552Z,17.15
2022-08-07T01:48:29.757Z,17.15
2022-08-07T01:51:24.759Z,17.19
2022-08-07T01:54:12.638Z,17.16
2022-08-07T01:57:00.445Z,17.11
2022-08-07T01:59:56.363Z,17.09
2022-08-07T02:03:12.411Z,17.03
2022-08-07T02:05:53.682Z,16.96
2022-08-07T02:08:27.958Z,16.90
2022-08-07T02:10:59.419Z,16.85
2022-08-07T02:13:58.512Z,16.84
2022-08-07T02:16:19.611Z,16.83
2022-08-07T02:18:48.934Z,16.83
2022-08-07T02:21:19.738Z,16.83
2022-08-07T02:23:47.916Z,16.82
2022-08-07T02:26:32.951Z,16.81
2022-08-07T02:29:03.131Z,16.79
2022-08-07T02:31:32.695Z,16.75
2022-08-07T02:34:11.251Z,16.72
2022-08-07T02:36:45.953Z,16.68
2022-08-07T02:39:17.362Z,16.73
2022-08-07T02:42:02.686Z,16.75
2022-08-07T02:44:32.525Z,16.75
2022-08-07T02:47:03.561Z,16.73
2022-08-07T02:49:56.315Z,16.72
2022-08-07T02:52:32.212Z,16.70
2022-08-07T02:55:28.106Z,16.72
2022-08-07T02:57:59.024Z,16.72
2022-08-07T03:00:28.552Z,16.72
2022-08-07T03:02:58.435Z,16.71
2022-08-07T03:05:25.106Z,16.67
2022-08-07T03:08:08.117Z,16.67
2022-08-07T03:10:40.972Z,16.65
2022-08-07T03:13:19.761Z,16.66
2022-08-07T03:15:56.568Z,16.65
2022-08-07T03:18:34.774Z,16.66
2022-08-07T03:21:05.023Z,16.66
2022-08-07T03:24:17.540Z,16.65
2022-08-07T03:26:27.922Z,16.61
2022-08-07T03:28:58.598Z,16.59
2022-08-07T03:31:42.769Z,16.59
2022-08-07T03:34:18.585Z,16.57
2022-08-07T03:36:52.908Z,16.57
2022-08-07T03:39:58.984Z,16.56
2022-08-07T03:42:08.016Z,16.52
2022-08-07T03:44:37.620Z,16.49
2022-08-07T03:47:11.082Z,16.45
2022-08-07T03:49:38.895Z,16.42
2022-08-07T03:52:22.411Z,16.42
2022-08-07T03:54:54.414Z,16.40
2022-08-07T03:59:05.129Z,16.38
2022-08-07T04:00:14.852Z,16.35
2022-08-07T04:02:47.088Z,16.27
2022-08-07T04:05:14.293Z,16.17
2022-08-07T04:07:46.658Z,16.09
2022-08-07T04:10:15.697Z,16.06
2022-08-07T04:12:47.241Z,16.09
2022-08-07T04:15:16.016Z,16.16
2022-08-07T04:18:30.769Z,16.21
2022-08-07T04:20:31.849Z,16.21
2022-08-07T04:23:06.620Z,16.19
2022-08-07T04:25:39.016Z,16.20
2022-08-07T04:28:10.394Z,16.18
2022-08-07T04:30:55.384Z,16.17
2022-08-07T04:33:24.914Z,16.13
2022-08-07T04:35:54.122Z,16.11
2022-08-07T04:38:21.835Z,16.11
2022-08-07T04:40:51.859Z,16.07
2022-08-07T04:43:22.199Z,16.06
2022-08-07T04:46:26.059Z,16.07
2022-08-07T04:49:18.119Z,16.12
2022-08-07T04:52:12.812Z,16.18
2022-08-07T04:55:14.804Z,16.23
2022-08-07T04:58:31.447Z,16.36
2022-08-07T05:01:03.582Z,16.87
2022-08-07T05:04:06.566Z,17.75
2022-08-07T05:07:22.601Z,18.67
2022-08-07T05:10:02.324Z,18.82
2022-08-07T05:12:51.491Z,18.91
2022-08-07T05:15:25.405Z,19.23
2022-08-07T05:18:06.173Z,19.46
2022-08-07T05:20:42.739Z,19.62
2022-08-07T05:23:30.886Z,19.77
2022-08-07T05:26:12.996Z,20.11
2022-08-07T05:28:48.711Z,20.41
2022-08-07T05:31:18.575Z,20.40
2022-08-07T05:34:01.064Z,20.40
2022-08-07T05:36:32.254Z,20.15
2022-08-07T05:40:05.030Z,19.51
2022-08-07T05:42:01.175Z,19.41
2022-08-07T05:44:31.064Z,19.72
2022-08-07T05:47:00.245Z,19.89
2022-08-07T05:49:40.796Z,19.98
2022-08-07T05:52:11.718Z,19.97
2022-08-07T05:54:53.298Z,19.88
2022-08-07T05:57:26.424Z,19.97
2022-08-07T05:59:57.251Z,19.89
2022-08-07T06:02:28.810Z,19.47
2022-08-07T06:04:57.817Z,19.23
2022-08-07T06:08:09.259Z,19.45
2022-08-07T06:10:15.192Z,19.61
2022-08-07T06:12:42.234Z,19.76
2022-08-07T06:15:15.251Z,19.93
2022-08-07T06:17:53.383Z,20.05
2022-08-07T06:20:25.538Z,20.00
2022-08-07T06:23:24.684Z,20.18
2022-08-07T06:25:54.620Z,20.37
2022-08-07T06:28:27.338Z,20.44
2022-08-07T06:30:55.694Z,20.30
2022-08-07T06:33:22.925Z,20.06
2022-08-07T06:36:12.360Z,19.96
2022-08-07T06:38:36.713Z,19.93
2022-08-07T06:41:09.790Z,19.83
2022-08-07T06:43:46.412Z,19.78
2022-08-07T06:46:14.452Z,19.50
2022-08-07T06:48:44.543Z,19.34
2022-08-07T06:51:31.299Z,19.36
2022-08-07T06:55:28.452Z,19.36
2022-08-07T06:56:54.260Z,19.51
2022-08-07T07:00:13.579Z,19.72
2022-08-07T07:02:54.402Z,19.97
2022-08-07T07:05:12.586Z,20.04
2022-08-07T07:08:00.149Z,20.07
2022-08-07T07:10:31.536Z,20.13
2022-08-07T07:13:06.892Z,20.27
2022-08-07T07:15:43.300Z,20.33
2022-08-07T07:18:37.658Z,20.39
2022-08-07T07:21:13.568Z,20.42
2022-08-07T07:24:08.870Z,20.52
2022-08-07T07:26:37.990Z,20.73
2022-08-07T07:29:40.218Z,20.94
2022-08-07T07:32:01.722Z,21.04
2022-08-07T07:34:32.113Z,21.08
2022-08-07T07:37:14.375Z,21.06
2022-08-07T07:39:52.253Z,21.13
2022-08-07T07:42:32.486Z,21.13
2022-08-07T07:45:04.149Z,21.23
2022-08-07T07:47:42.738Z,21.32
2022-08-07T07:50:33.099Z,21.31
2022-08-07T07:53:13.540Z,21.39
2022-08-07T07:55:54.897Z,21.58
2022-08-07T07:58:28.555Z,21.86
2022-08-07T08:00:55.999Z,22.05
2022-08-07T08:04:06.170Z,22.14
2022-08-07T08:06:13.125Z,22.22
2022-08-07T08:08:42.105Z,22.22
2022-08-07T08:11:13.662Z,22.33
2022-08-07T08:13:54.402Z,22.46
2022-08-07T08:18:36.897Z,22.45
2022-08-07T08:20:16.336Z,22.55
2022-08-07T08:22:32.740Z,22.62
2022-08-07T08:25:26.290Z,22.71
2022-08-07T08:28:12.987Z,22.74
2022-08-07T08:30:51.297Z,22.75
2022-08-07T08:33:24.922Z,22.66
2022-08-07T08:35:57.527Z,22.78
2022-08-07T08:38:36.684Z,22.81
2022-08-07T08:41:31.533Z,22.77
2022-08-07T08:44:29.416Z,22.71
2022-08-07T08:47:21.959Z,22.75
2022-08-07T08:50:35.057Z,22.96
2022-08-07T08:53:14.934Z,23.11
2022-08-07T08:56:17.321Z,23.05
2022-08-07T08:59:13.481Z,23.05
2022-08-07T09:02:05.243Z,23.25
2022-08-07T09:04:49.839Z,23.40
2022-08-07T09:07:46.510Z,23.57
2022-08-07T09:10:48.808Z,23.74
2022-08-07T09:13:37.115Z,23.83
2022-08-07T09:16:25.454Z,24.00
2022-08-07T09:19:52.179Z,24.07
2022-08-07T09:24:28.543Z,24.07
2022-08-07T09:25:26.939Z,24.15
2022-08-07T09:28:06.320Z,24.34
2022-08-07T09:31:08.509Z,24.35
2022-08-07T09:33:57.877Z,24.36
2022-08-07T09:36:35.649Z,24.48
2022-08-07T09:39:55.055Z,24.61
2022-08-07T09:43:01.611Z,24.80
2022-08-07T09:47:27.512Z,24.96
2022-08-07T09:50:01.591Z,25.05
2022-08-07T09:52:33.560Z,25.18
2022-08-07T09:55:29.935Z,25.39
2022-08-07T09:58:32.542Z,25.57
2022-08-07T10:01:53.159Z,25.70
2022-08-07T10:04:28.248Z,25.58
2022-08-07T10:07:24.525Z,25.65
2022-08-07T10:10:02.585Z,25.69
2022-08-07T10:12:53.231Z,25.76
2022-08-07T10:15:44.332Z,25.80
2022-08-07T10:18:26.382Z,25.85
2022-08-07T10:21:19.990Z,25.85
2022-08-07T10:24:32.555Z,25.99
2022-08-07T10:27:10.595Z,26.16
2022-08-07T10:30:07.394Z,26.44
2022-08-07T10:33:13.042Z,26.62
2022-08-07T10:36:29.483Z,26.84
2022-08-07T10:39:51.703Z,26.89
2022-08-07T10:42:54.073Z,26.95
2022-08-07T10:45:57.838Z,27.06
2022-08-07T10:48:39.213Z,27.21
2022-08-07T10:51:16.354Z,27.32
2022-08-07T10:54:21.779Z,27.40
2022-08-07T10:57:01.980Z,27.48
2022-08-07T10:59:37.296Z,27.63
2022-08-07T11:02:34.254Z,27.65
2022-08-07T11:05:49.159Z,27.58
2022-08-07T11:08:43.560Z,27.57
2022-08-07T11:11:20.922Z,27.48
2022-08-07T11:14:46.136Z,27.48
2022-08-07T11:16:55.665Z,27.44
2022-08-07T11:19:38.422Z,27.52
2022-08-07T11:22:27.199Z,27.47
2022-08-07T11:25:30.700Z,27.56
2022-08-07T11:28:04.420Z,27.73
2022-08-07T11:31:11.551Z,27.85
2022-08-07T11:34:10.972Z,28.03
2022-08-07T11:36:56.424Z,28.15
2022-08-07T11:39:58.942Z,28.11
2022-08-07T11:42:36.242Z,28.11
2022-08-07T11:45:15.152Z,28.35
2022-08-07T11:48:01.601Z,28.50
2022-08-07T11:50:44.621Z,28.59
2022-08-07T11:53:57.073Z,28.77
2022-08-07T11:56:46.135Z,28.79
2022-08-07T12:00:11.593Z,28.90
2022-08-07T12:02:52.265Z,29.08
2022-08-07T12:05:47.340Z,29.04
2022-08-07T12:08:26.081Z,28.78
2022-08-07T12:11:20.254Z,28.63
2022-08-07T12:14:08.878Z,28.64
2022-08-07T12:16:46.712Z,28.91
2022-08-07T12:20:02.519Z,29.17
2022-08-07T12:22:56.428Z,29.12
2022-08-07T12:26:03.131Z,29.19
2022-08-07T12:28:56.087Z,29.50
2022-08-07T12:31:52.914Z,29.63
2022-08-07T12:34:31.637Z,29.69
2022-08-07T12:37:00.859Z,29.60
2022-08-07T12:39:44.363Z,29.30
2022-08-07T12:42:27.172Z,29.30
2022-08-07T12:44:58.114Z,29.35
2022-08-07T12:47:33.249Z,29.34
2022-08-07T12:50:34.062Z,29.49
2022-08-07T12:53:17.706Z,29.52
2022-08-07T12:56:02.649Z,29.73
2022-08-07T12:58:37.651Z,29.99
2022-08-07T13:01:07.823Z,30.01
2022-08-07T13:04:00.546Z,30.13
2022-08-07T13:06:54.325Z,30.07
2022-08-07T13:10:21.532Z,30.04
2022-08-07T13:12:29.089Z,30.12
2022-08-07T13:15:34.548Z,30.09
2022-08-07T13:18:26.293Z,30.09
2022-08-07T13:21:23.590Z,30.15
2022-08-07T13:24:43.956Z,30.15
2022-08-07T13:28:05.802Z,30.15
2022-08-07T13:30:19.517Z,30.06
2022-08-07T13:34:32.872Z,30.31
2022-08-07T13:36:17.660Z,30.56
2022-08-07T13:39:49.493Z,30.55
2022-08-07T13:42:21.508Z,30.61
2022-08-07T13:44:55.375Z,30.73
2022-08-07T13:48:06.767Z,30.86
2022-08-07T13:50:35.435Z,30.86
2022-08-07T13:53:21.776Z,30.87
2022-08-07T13:55:54.196Z,30.98
2022-08-07T13:58:41.581Z,31.10
2022-08-07T14:01:24.871Z,31.20
2022-08-07T14:04:07.329Z,31.46
2022-08-07T14:06:38.555Z,31.79
2022-08-07T14:09:07.440Z,32.19
2022-08-07T14:12:00.491Z,32.14
2022-08-07T14:14:39.974Z,32.33
2022-08-07T14:17:13.100Z,32.62
2022-08-07T14:20:40.994Z,33.18
2022-08-07T14:23:03.154Z,33.76
2022-08-07T14:25:39.286Z,34.16
2022-08-07T14:28:15.698Z,34.72
2022-08-07T14:30:52.051Z,34.82
2022-08-07T14:33:22.303Z,34.99
2022-08-07T14:35:56.075Z,35.21
2022-08-07T14:38:30.874Z,35.52
2022-08-07T14:41:05.405Z,35.71
2022-08-07T14:46:31.957Z,36.34
2022-08-07T14:49:55.585Z,36.16
2022-08-07T14:52:04.913Z,36.73
2022-08-07T14:54:42.926Z,36.92
2022-08-07T14:57:19.118Z,36.80
2022-08-07T15:00:04.396Z,36.46
2022-08-07T15:02:34.638Z,35.90
2022-08-07T15:05:03.103Z,35.60
2022-08-07T15:10:26.404Z,36.37
2022-08-07T15:12:58.428Z,36.89
2022-08-07T15:15:37.856Z,37.01
2022-08-07T15:21:08.159Z,36.67
2022-08-07T15:25:02.304Z,37.13
2022-08-07T15:26:35.712Z,37.46
2022-08-07T15:30:08.461Z,37.72
2022-08-07T15:32:02.023Z,37.89
2022-08-07T15:34:56.866Z,38.22
2022-08-07T15:37:28.995Z,38.43
2022-08-07T15:40:34.947Z,38.54
2022-08-07T15:43:04.755Z,38.26
2022-08-07T15:45:56.196Z,38.08
2022-08-07T15:48:35.892Z,37.95
2022-08-07T15:54:12.880Z,37.25
2022-08-07T15:56:41.757Z,37.10
2022-08-07T15:59:16.625Z,36.94
2022-08-07T16:02:01.883Z,36.39
2022-08-07T16:04:33.520Z,36.16
2022-08-07T16:07:04.976Z,36.29
2022-08-07T16:09:57.178Z,36.59
2022-08-07T16:12:42.727Z,36.87
2022-08-07T16:16:06.466Z,37.41
2022-08-07T16:18:49.427Z,37.67
2022-08-07T16:22:03.626Z,37.59
2022-08-07T16:24:33.593Z,37.53
2022-08-07T16:27:40.619Z,37.39
2022-08-07T16:30:31.870Z,37.32
2022-08-07T16:34:03.054Z,37.08
2022-08-07T16:36:20.306Z,37.17
2022-08-07T16:39:14.823Z,37.54
2022-08-07T16:42:18.363Z,37.68
2022-08-07T16:46:07.747Z,37.87
2022-08-07T16:48:09.006Z,38.09
2022-08-07T16:51:20.868Z,38.12
2022-08-07T16:54:19.015Z,37.86
2022-08-07T16:56:55.269Z,37.92
2022-08-07T16:59:51.198Z,37.97
2022-08-07T17:02:52.490Z,37.83
2022-08-07T17:06:19.571Z,37.41
2022-08-07T17:09:14.348Z,37.21
2022-08-07T17:12:04.728Z,36.58
2022-08-07T17:14:46.653Z,35.60
2022-08-07T17:17:46.821Z,34.60
2022-08-07T17:20:30.852Z,33.51
2022-08-07T17:23:31.898Z,32.74
2022-08-07T17:26:23.312Z,32.05
2022-08-07T17:29:08.317Z,31.43
2022-08-07T17:31:43.913Z,31.01
2022-08-07T17:34:34.515Z,30.66
2022-08-07T17:38:04.954Z,30.33
2022-08-07T17:40:38.279Z,30.05
2022-08-07T17:43:18.502Z,29.75
2022-08-07T17:45:54.751Z,29.49
2022-08-07T17:48:30.742Z,29.31
2022-08-07T17:51:21.522Z,29.11
2022-08-07T17:54:06.440Z,28.95
2022-08-07T17:57:00.025Z,28.86
2022-08-07T17:59:44.578Z,28.73
2022-08-07T18:02:15.019Z,28.66
2022-08-07T18:05:20.896Z,28.51
2022-08-07T18:08:03.161Z,28.45
2022-08-07T18:12:17.897Z,28.35
2022-08-07T18:14:01.487Z,28.24
2022-08-07T18:16:36.398Z,28.11
2022-08-07T18:21:11.508Z,27.99
2022-08-07T18:22:36.607Z,27.88
2022-08-07T18:25:19.202Z,27.81
2022-08-07T18:27:53.965Z,27.74
2022-08-07T18:30:36.781Z,27.67
2022-08-07T18:33:37.869Z,27.57
2022-08-07T18:36:32.714Z,27.47
2022-08-07T18:40:08.818Z,27.40
2022-08-07T18:42:13.038Z,27.27
2022-08-07T18:45:43.415Z,27.18
2022-08-07T18:48:08.174Z,27.08
2022-08-07T18:50:56.216Z,27.00
2022-08-07T18:53:48.836Z,26.89
2022-08-07T18:56:58.265Z,26.82
2022-08-07T18:59:59.318Z,26.71
2022-08-07T19:03:11.823Z,26.60
2022-08-07T19:06:02.426Z,26.50
2022-08-07T19:08:48.258Z,26.41
2022-08-07T19:11:36.226Z,26.32
2022-08-07T19:14:19.782Z,26.20
2022-08-07T19:17:04.989Z,26.13
2022-08-07T19:19:41.266Z,26.03
2022-08-07T19:22:31.317Z,25.90
2022-08-07T19:25:06.394Z,25.77
2022-08-07T19:28:29.593Z,25.66
2022-08-07T19:31:03.463Z,25.56
2022-08-07T19:33:18.818Z,25.42
2022-08-07T19:36:01.925Z,25.30
2022-08-07T19:38:34.167Z,25.20
2022-08-07T19:41:02.644Z,25.14
2022-08-07T19:43:43.956Z,25.05
2022-08-07T19:46:26.830Z,24.95
2022-08-07T19:49:07.263Z,24.86
2022-08-07T19:51:52.658Z,24.81
2022-08-07T19:54:34.121Z,24.74
2022-08-07T19:58:02.865Z,24.63
2022-08-07T20:00:02.170Z,24.51
2022-08-07T20:02:34.568Z,24.41
2022-08-07T20:05:07.818Z,24.31
2022-08-07T20:07:47.498Z,24.24
2022-08-07T20:10:36.068Z,24.16
2022-08-07T20:13:23.182Z,24.11
2022-08-07T20:15:53.933Z,24.06
2022-08-07T20:18:32.913Z,24.02
2022-08-07T20:21:02.523Z,23.97
2022-08-07T20:23:43.373Z,23.92
2022-08-07T20:26:29.510Z,23.89
2022-08-07T20:29:01.592Z,23.83
2022-08-07T20:31:44.341Z,23.79
2022-08-07T20:34:15.063Z,23.75
2022-08-07T20:36:44.077Z,23.70
2022-08-07T20:40:01.469Z,23.61
2022-08-07T20:42:14.588Z,23.54
2022-08-07T20:44:49.302Z,23.49
2022-08-07T20:47:26.386Z,23.42
2022-08-07T20:50:11.224Z,23.36
2022-08-07T20:52:51.495Z,23.30
2022-08-07T20:55:24.014Z,23.21
2022-08-07T20:58:02.718Z,23.07
2022-08-07T21:00:44.391Z,23.04
2022-08-07T21:03:16.765Z,22.97
2022-08-07T21:05:55.822Z,22.88
2022-08-07T21:08:38.090Z,22.79
2022-08-07T21:11:14.381Z,22.74
2022-08-07T21:14:29.907Z,22.67
2022-08-07T21:16:56.907Z,22.60
2022-08-07T21:19:51.125Z,22.54
2022-08-07T21:22:19.825Z,22.47
2022-08-07T21:24:47.975Z,22.43
2022-08-07T21:27:39.839Z,22.36
2022-08-07T21:30:16.678Z,22.30
2022-08-07T21:33:00.559Z,22.26
2022-08-07T21:36:06.004Z,22.23
2022-08-07T21:38:49.771Z,22.19
2022-08-07T21:41:38.201Z,22.22
2022-08-07T21:44:51.105Z,22.17
2022-08-07T21:47:51.689Z,22.14
2022-08-07T21:50:35.161Z,22.12
2022-08-07T21:53:09.605Z,22.10
2022-08-07T21:56:36.458Z,22.08
2022-08-07T21:59:04.938Z,22.07
2022-08-07T22:02:10.364Z,22.08
2022-08-07T22:04:37.016Z,22.06
2022-08-07T22:07:19.150Z,22.04
2022-08-07T22:09:55.382Z,22.04
2022-08-07T22:12:57.014Z,22.03
2022-08-07T22:16:42.302Z,22.01
2022-08-07T22:18:22.033Z,22.00
2022-08-07T22:21:16.176Z,21.95
2022-08-07T22:24:00.314Z,21.91
2022-08-07T22:26:45.145Z,21.90
2022-08-07T22:29:38.070Z,21.89
2022-08-07T22:32:42.289Z,21.82
2022-08-07T22:35:11.523Z,21.82
2022-08-07T22:38:03.232Z,21.77
2022-08-07T22:40:50.036Z,21.74
2022-08-07T22:43:21.445Z,21.75
2022-08-07T22:46:47.106Z,21.73
2022-08-07T22:49:33.864Z,21.66
2022-08-07T22:52:36.857Z,21.61
2022-08-07T22:55:30.122Z,21.60
2022-08-07T22:58:28.060Z,21.52
2022-08-07T23:01:23.367Z,21.49
2022-08-07T23:04:08.446Z,21.47
2022-08-07T23:06:53.689Z,21.43
2022-08-07T23:10:05.321Z,21.40
2022-08-07T23:12:54.768Z,21.34
2022-08-07T23:16:07.070Z,21.30
2022-08-07T23:19:15.974Z,21.27
2022-08-07T23:22:03.739Z,21.23
2022-08-07T23:24:38.535Z,21.19
2022-08-07T23:27:33.589Z,21.16
2022-08-07T23:30:38.709Z,21.12
2022-08-07T23:34:33.461Z,21.11
2022-08-07T23:36:01.407Z,21.05
2022-08-07T23:38:54.930Z,21.01
2022-08-07T23:41:47.659Z,20.97
2022-08-07T23:44:40.624Z,20.93
2022-08-07T23:47:13.289Z,20.92
2022-08-07T23:50:11.819Z,20.87
2022-08-07T23:53:00.785Z,20.85
2022-08-07T23:55:53.388Z,20.79
2022-08-07T23:59:10.850Z,20.75
